sensor_id;sensor_type;location;lat;lon;timestamp;pressure;altitude;pressure_sealevel;temperature;humidity
70370;BME280;57790;51.356;-2.906;2023-04-04T00:01:43;103003.41;;;10.79;100.00
70370;BME280;57790;51.356;-2.906;2023-04-04T00:04:44;103000.13;;;10.76;100.00
70370;BME280;57790;51.356;-2.906;2023-04-04T00:07:45;103007.97;;;10.77;100.00
70370;BME280;57790;51.356;-2.906;2023-04-04T00:10:46;103010.13;;;10.72;100.00
70370;BME280;57790;51.356;-2.906;2023-04-04T00:13:46;103012.78;;;10.72;100.00
70370;BME280;57790;51.356;-2.906;2023-04-04T00:16:47;103009.78;;;10.64;100.00
70370;BME280;57790;51.356;-2.906;2023-04-04T00:19:47;103004.59;;;10.62;100.00
70370;BME280;57790;51.356;-2.906;2023-04-04T00:22:48;103005.56;;;10.61;100.00
70370;BME280;57790;51.356;-2.906;2023-04-04T00:25:51;103002.28;;;10.58;100.00
70370;BME280;57790;51.356;-2.906;2023-04-04T00:28:52;103002.03;;;10.48;100.00
70370;BME280;57790;51.356;-2.906;2023-04-04T00:31:52;103002.16;;;10.47;100.00
70370;BME280;57790;51.356;-2.906;2023-04-04T00:34:53;102995.38;;;10.42;100.00
70370;BME280;57790;51.356;-2.906;2023-04-04T00:37:53;102998.09;;;10.41;100.00
70370;BME280;57790;51.356;-2.906;2023-04-04T00:40:55;103000.22;;;10.36;100.00
70370;BME280;57790;51.356;-2.906;2023-04-04T00:43:56;102995.03;;;10.34;100.00
70370;BME280;57790;51.356;-2.906;2023-04-04T00:46:56;103001.72;;;10.27;100.00
70370;BME280;57790;51.356;-2.906;2023-04-04T00:49:57;102998.31;;;10.25;100.00
70370;BME280;57790;51.356;-2.906;2023-04-04T00:52:57;102983.34;;;10.24;100.00
70370;BME280;57790;51.356;-2.906;2023-04-04T00:55:58;102997.69;;;10.22;100.00
70370;BME280;57790;51.356;-2.906;2023-04-04T00:58:59;102998.19;;;10.14;100.00
70370;BME280;57790;51.356;-2.906;2023-04-04T01:02:00;103000.84;;;10.14;100.00
70370;BME280;57790;51.356;-2.906;2023-04-04T01:05:02;102988.44;;;10.14;100.00
70370;BME280;57790;51.356;-2.906;2023-04-04T01:08:03;102980.75;;;10.10;100.00
70370;BME280;57790;51.356;-2.906;2023-04-04T01:11:04;102973.03;;;10.07;100.00
70370;BME280;57790;51.356;-2.906;2023-04-04T01:14:05;102974.19;;;10.03;100.00
70370;BME280;57790;51.356;-2.906;2023-04-04T01:17:05;102971.00;;;9.98;100.00
70370;BME280;57790;51.356;-2.906;2023-04-04T01:20:12;102968.78;;;9.92;100.00
70370;BME280;57790;51.356;-2.906;2023-04-04T01:23:14;102974.81;;;9.94;100.00
70370;BME280;57790;51.356;-2.906;2023-04-04T01:26:16;102966.72;;;9.82;100.00
70370;BME280;57790;51.356;-2.906;2023-04-04T01:29:16;102968.84;;;9.77;100.00
70370;BME280;57790;51.356;-2.906;2023-04-04T01:32:27;102963.66;;;9.76;100.00
70370;BME280;57790;51.356;-2.906;2023-04-04T01:39:04;102963.28;;;9.68;100.00
70370;BME280;57790;51.356;-2.906;2023-04-04T01:42:10;102968.53;;;9.69;100.00
70370;BME280;57790;51.356;-2.906;2023-04-04T01:45:11;102968.59;;;9.68;100.00
70370;BME280;57790;51.356;-2.906;2023-04-04T01:48:12;102969.66;;;9.65;100.00
70370;BME280;57790;51.356;-2.906;2023-04-04T01:51:15;102958.91;;;9.54;100.00
70370;BME280;57790;51.356;-2.906;2023-04-04T01:54:16;102964.31;;;9.52;100.00
70370;BME280;57790;51.356;-2.906;2023-04-04T01:57:18;102961.97;;;9.48;100.00
70370;BME280;57790;51.356;-2.906;2023-04-04T02:00:18;102968.31;;;9.45;100.00
70370;BME280;57790;51.356;-2.906;2023-04-04T02:03:19;102963.78;;;9.47;100.00
70370;BME280;57790;51.356;-2.906;2023-04-04T02:06:19;102960.00;;;9.37;100.00
70370;BME280;57790;51.356;-2.906;2023-04-04T02:09:20;102975.16;;;9.35;100.00
70370;BME280;57790;51.356;-2.906;2023-04-04T02:12:21;102974.03;;;9.25;100.00
70370;BME280;57790;51.356;-2.906;2023-04-04T02:15:21;102974.66;;;9.16;100.00
70370;BME280;57790;51.356;-2.906;2023-04-04T02:18:23;102977.50;;;9.13;100.00
70370;BME280;57790;51.356;-2.906;2023-04-04T02:21:23;102974.06;;;9.11;100.00
70370;BME280;57790;51.356;-2.906;2023-04-04T02:24:26;102965.28;;;9.10;100.00
70370;BME280;57790;51.356;-2.906;2023-04-04T02:27:26;102959.34;;;9.07;100.00
70370;BME280;57790;51.356;-2.906;2023-04-04T02:30:27;102962.00;;;9.07;100.00
70370;BME280;57790;51.356;-2.906;2023-04-04T02:33:28;102969.81;;;9.08;100.00
70370;BME280;57790;51.356;-2.906;2023-04-04T02:36:28;102965.03;;;9.01;100.00
70370;BME280;57790;51.356;-2.906;2023-04-04T02:39:29;102966.16;;;8.97;100.00
70370;BME280;57790;51.356;-2.906;2023-04-04T02:42:29;102959.38;;;8.92;100.00
70370;BME280;57790;51.356;-2.906;2023-04-04T02:45:30;102958.91;;;8.86;100.00
70370;BME280;57790;51.356;-2.906;2023-04-04T02:48:30;102951.84;;;8.86;100.00
70370;BME280;57790;51.356;-2.906;2023-04-04T02:51:31;102956.84;;;8.77;100.00
70370;BME280;57790;51.356;-2.906;2023-04-04T02:54:32;102957.88;;;8.74;100.00
70370;BME280;57790;51.356;-2.906;2023-04-04T02:57:33;102952.59;;;8.74;100.00
70370;BME280;57790;51.356;-2.906;2023-04-04T03:00:34;102952.13;;;8.68;100.00
70370;BME280;57790;51.356;-2.906;2023-04-04T03:03:34;102953.16;;;8.65;100.00
70370;BME280;57790;51.356;-2.906;2023-04-04T03:06:35;102950.41;;;8.67;100.00
70370;BME280;57790;51.356;-2.906;2023-04-04T03:09:36;102950.41;;;8.67;100.00
70370;BME280;57790;51.356;-2.906;2023-04-04T03:12:37;102946.47;;;8.59;100.00
70370;BME280;57790;51.356;-2.906;2023-04-04T03:15:37;102947.41;;;8.58;100.00
70370;BME280;57790;51.356;-2.906;2023-04-04T03:18:39;102945.06;;;8.54;100.00
70370;BME280;57790;51.356;-2.906;2023-04-04T03:21:40;102941.63;;;8.52;100.00
70370;BME280;57790;51.356;-2.906;2023-04-04T03:24:40;102940.88;;;8.50;100.00
70370;BME280;57790;51.356;-2.906;2023-04-04T03:27:40;102940.34;;;8.45;100.00
70370;BME280;57790;51.356;-2.906;2023-04-04T03:30:41;102936.75;;;8.46;100.00
70370;BME280;57790;51.356;-2.906;2023-04-04T03:33:41;102932.97;;;8.50;100.00
70370;BME280;57790;51.356;-2.906;2023-04-04T03:36:42;102930.81;;;8.42;100.00
70370;BME280;57790;51.356;-2.906;2023-04-04T03:39:42;102927.47;;;8.39;100.00
70370;BME280;57790;51.356;-2.906;2023-04-04T03:42:42;102925.13;;;8.34;100.00
70370;BME280;57790;51.356;-2.906;2023-04-04T03:45:43;102923.59;;;8.30;100.00
70370;BME280;57790;51.356;-2.906;2023-04-04T03:48:43;102930.00;;;8.26;100.00
70370;BME280;57790;51.356;-2.906;2023-04-04T03:51:44;102932.25;;;8.18;100.00
70370;BME280;57790;51.356;-2.906;2023-04-04T03:54:45;102926.88;;;8.19;100.00
70370;BME280;57790;51.356;-2.906;2023-04-04T03:57:45;102927.25;;;8.13;100.00
70370;BME280;57790;51.356;-2.906;2023-04-04T04:00:47;102921.56;;;8.05;100.00
70370;BME280;57790;51.356;-2.906;2023-04-04T04:03:47;102924.94;;;7.93;100.00
70370;BME280;57790;51.356;-2.906;2023-04-04T04:06:48;102918.06;;;7.90;100.00
70370;BME280;57790;51.356;-2.906;2023-04-04T04:09:48;102924.38;;;7.88;100.00
70370;BME280;57790;51.356;-2.906;2023-04-04T04:12:48;102926.81;;;7.91;100.00
70370;BME280;57790;51.356;-2.906;2023-04-04T04:15:49;102917.13;;;7.91;100.00
70370;BME280;57790;51.356;-2.906;2023-04-04T04:18:49;102926.34;;;7.84;100.00
70370;BME280;57790;51.356;-2.906;2023-04-04T04:21:49;102927.22;;;7.85;100.00
70370;BME280;57790;51.356;-2.906;2023-04-04T04:24:50;102915.19;;;7.79;100.00
70370;BME280;57790;51.356;-2.906;2023-04-04T04:27:54;102932.16;;;7.75;100.00
70370;BME280;57790;51.356;-2.906;2023-04-04T04:30:55;102926.03;;;7.74;100.00
70370;BME280;57790;51.356;-2.906;2023-04-04T04:33:56;102930.00;;;7.67;100.00
70370;BME280;57790;51.356;-2.906;2023-04-04T04:36:57;102928.34;;;7.65;100.00
70370;BME280;57790;51.356;-2.906;2023-04-04T04:39:57;102925.06;;;7.61;100.00
70370;BME280;57790;51.356;-2.906;2023-04-04T04:42:58;102932.22;;;7.59;100.00
70370;BME280;57790;51.356;-2.906;2023-04-04T04:45:58;102926.34;;;7.54;100.00
70370;BME280;57790;51.356;-2.906;2023-04-04T04:48:58;102923.63;;;7.56;100.00
70370;BME280;57790;51.356;-2.906;2023-04-04T04:51:59;102919.38;;;7.53;100.00
70370;BME280;57790;51.356;-2.906;2023-04-04T04:54:59;102915.72;;;7.56;100.00
70370;BME280;57790;51.356;-2.906;2023-04-04T04:58:00;102915.19;;;7.49;100.00
70370;BME280;57790;51.356;-2.906;2023-04-04T05:01:00;102921.41;;;7.48;100.00
70370;BME280;57790;51.356;-2.906;2023-04-04T05:04:01;102924.16;;;7.46;100.00
70370;BME280;57790;51.356;-2.906;2023-04-04T05:07:01;102916.69;;;7.39;100.00
70370;BME280;57790;51.356;-2.906;2023-04-04T05:10:02;102925.53;;;7.38;100.00
70370;BME280;57790;51.356;-2.906;2023-04-04T05:13:02;102920.59;;;7.32;100.00
70370;BME280;57790;51.356;-2.906;2023-04-04T05:16:03;102924.28;;;7.29;100.00
70370;BME280;57790;51.356;-2.906;2023-04-04T05:19:03;102925.38;;;7.25;100.00
70370;BME280;57790;51.356;-2.906;2023-04-04T05:22:05;102919.00;;;7.13;100.00
70370;BME280;57790;51.356;-2.906;2023-04-04T05:25:06;102918.75;;;7.18;100.00
70370;BME280;57790;51.356;-2.906;2023-04-04T05:28:07;102926.75;;;7.16;100.00
70370;BME280;57790;51.356;-2.906;2023-04-04T05:31:08;102925.97;;;7.14;100.00
70370;BME280;57790;51.356;-2.906;2023-04-04T05:34:08;102920.28;;;7.06;100.00
70370;BME280;57790;51.356;-2.906;2023-04-04T05:37:09;102923.94;;;7.04;100.00
70370;BME280;57790;51.356;-2.906;2023-04-04T05:40:09;102929.66;;;6.96;100.00
70370;BME280;57790;51.356;-2.906;2023-04-04T05:43:10;102912.28;;;6.92;100.00
70370;BME280;57790;51.356;-2.906;2023-04-04T05:46:10;102912.19;;;6.94;100.00
70370;BME280;57790;51.356;-2.906;2023-04-04T05:49:10;102915.84;;;6.91;100.00
70370;BME280;57790;51.356;-2.906;2023-04-04T05:52:11;102919.25;;;6.93;100.00
70370;BME280;57790;51.356;-2.906;2023-04-04T05:55:11;102914.91;;;6.92;100.00
70370;BME280;57790;51.356;-2.906;2023-04-04T05:58:12;102909.91;;;6.88;100.00
70370;BME280;57790;51.356;-2.906;2023-04-04T06:01:12;102909.31;;;6.82;100.00
70370;BME280;57790;51.356;-2.906;2023-04-04T06:04:13;102916.22;;;6.85;100.00
70370;BME280;57790;51.356;-2.906;2023-04-04T06:07:13;102906.50;;;6.85;100.00
70370;BME280;57790;51.356;-2.906;2023-04-04T06:10:14;102906.78;;;6.81;100.00
70370;BME280;57790;51.356;-2.906;2023-04-04T06:13:14;102904.19;;;6.79;100.00
70370;BME280;57790;51.356;-2.906;2023-04-04T06:16:15;102902.66;;;6.75;100.00
70370;BME280;57790;51.356;-2.906;2023-04-04T06:19:15;102895.63;;;6.76;100.00
70370;BME280;57790;51.356;-2.906;2023-04-04T06:22:16;102908.03;;;6.74;100.00
70370;BME280;57790;51.356;-2.906;2023-04-04T06:25:17;102904.72;;;6.70;100.00
70370;BME280;57790;51.356;-2.906;2023-04-04T06:28:17;102903.69;;;6.73;100.00
70370;BME280;57790;51.356;-2.906;2023-04-04T06:31:18;102902.00;;;6.72;100.00
70370;BME280;57790;51.356;-2.906;2023-04-04T06:34:20;102914.16;;;6.74;100.00
70370;BME280;57790;51.356;-2.906;2023-04-04T06:37:20;102909.81;;;6.73;100.00
70370;BME280;57790;51.356;-2.906;2023-04-04T06:40:21;102910.56;;;6.75;100.00
70370;BME280;57790;51.356;-2.906;2023-04-04T06:43:22;102911.69;;;6.71;100.00
70370;BME280;57790;51.356;-2.906;2023-04-04T06:46:22;102907.78;;;6.78;100.00
70370;BME280;57790;51.356;-2.906;2023-04-04T06:49:24;102914.91;;;6.76;100.00
70370;BME280;57790;51.356;-2.906;2023-04-04T06:52:24;102924.38;;;6.80;100.00
70370;BME280;57790;51.356;-2.906;2023-04-04T06:55:25;102933.19;;;6.79;100.00
70370;BME280;57790;51.356;-2.906;2023-04-04T06:58:26;102929.47;;;6.83;100.00
70370;BME280;57790;51.356;-2.906;2023-04-04T07:01:26;102929.38;;;6.85;100.00
70370;BME280;57790;51.356;-2.906;2023-04-04T07:04:27;102940.69;;;6.87;100.00
70370;BME280;57790;51.356;-2.906;2023-04-04T07:07:27;102945.13;;;6.86;100.00
70370;BME280;57790;51.356;-2.906;2023-04-04T07:10:29;102945.63;;;6.93;100.00
70370;BME280;57790;51.356;-2.906;2023-04-04T07:13:29;102939.41;;;6.94;100.00
70370;BME280;57790;51.356;-2.906;2023-04-04T07:16:30;102944.44;;;6.99;100.00
70370;BME280;57790;51.356;-2.906;2023-04-04T07:19:30;102939.00;;;7.02;100.00
70370;BME280;57790;51.356;-2.906;2023-04-04T07:22:31;102944.94;;;7.05;100.00
70370;BME280;57790;51.356;-2.906;2023-04-04T07:25:31;102941.63;;;7.02;100.00
70370;BME280;57790;51.356;-2.906;2023-04-04T07:28:31;102943.25;;;7.04;100.00
70370;BME280;57790;51.356;-2.906;2023-04-04T07:31:32;102948.28;;;7.09;100.00
70370;BME280;57790;51.356;-2.906;2023-04-04T07:34:32;102956.97;;;7.11;100.00
70370;BME280;57790;51.356;-2.906;2023-04-04T07:37:35;102957.06;;;7.09;100.00
70370;BME280;57790;51.356;-2.906;2023-04-04T07:40:36;102948.59;;;7.19;100.00
70370;BME280;57790;51.356;-2.906;2023-04-04T07:43:37;102953.47;;;7.26;100.00
70370;BME280;57790;51.356;-2.906;2023-04-04T07:46:37;102954.22;;;7.28;100.00
70370;BME280;57790;51.356;-2.906;2023-04-04T07:49:37;102946.81;;;7.35;100.00
70370;BME280;57790;51.356;-2.906;2023-04-04T07:52:38;102942.81;;;7.43;100.00
70370;BME280;57790;51.356;-2.906;2023-04-04T07:55:39;102944.13;;;7.51;100.00
70370;BME280;57790;51.356;-2.906;2023-04-04T07:58:40;102953.41;;;7.58;100.00
70370;BME280;57790;51.356;-2.906;2023-04-04T08:01:40;102949.94;;;7.57;100.00
70370;BME280;57790;51.356;-2.906;2023-04-04T08:04:41;102944.38;;;7.62;100.00
70370;BME280;57790;51.356;-2.906;2023-04-04T08:07:41;102940.63;;;7.66;100.00
70370;BME280;57790;51.356;-2.906;2023-04-04T08:10:43;102947.63;;;7.67;100.00
70370;BME280;57790;51.356;-2.906;2023-04-04T08:13:45;102959.69;;;7.71;100.00
70370;BME280;57790;51.356;-2.906;2023-04-04T08:16:45;102961.97;;;7.77;100.00
70370;BME280;57790;51.356;-2.906;2023-04-04T08:19:46;102962.56;;;7.82;100.00
70370;BME280;57790;51.356;-2.906;2023-04-04T08:22:46;102964.66;;;7.91;100.00
70370;BME280;57790;51.356;-2.906;2023-04-04T08:25:47;102967.03;;;7.96;100.00
70370;BME280;57790;51.356;-2.906;2023-04-04T08:28:48;102963.09;;;8.03;100.00
70370;BME280;57790;51.356;-2.906;2023-04-04T08:31:49;102967.31;;;8.05;100.00
70370;BME280;57790;51.356;-2.906;2023-04-04T08:34:49;102963.50;;;8.11;100.00
70370;BME280;57790;51.356;-2.906;2023-04-04T08:37:50;102963.22;;;8.16;100.00
70370;BME280;57790;51.356;-2.906;2023-04-04T08:40:51;102955.94;;;8.19;100.00
70370;BME280;57790;51.356;-2.906;2023-04-04T08:43:52;102969.34;;;8.30;100.00
70370;BME280;57790;51.356;-2.906;2023-04-04T08:46:58;102955.88;;;8.35;100.00
70370;BME280;57790;51.356;-2.906;2023-04-04T08:49:59;102958.53;;;8.35;100.00
70370;BME280;57790;51.356;-2.906;2023-04-04T08:53:02;102954.84;;;8.38;100.00
70370;BME280;57790;51.356;-2.906;2023-04-04T08:56:05;102955.44;;;8.43;100.00
70370;BME280;57790;51.356;-2.906;2023-04-04T08:59:05;102962.78;;;8.52;100.00
70370;BME280;57790;51.356;-2.906;2023-04-04T09:05:09;102951.47;;;8.64;100.00
70370;BME280;57790;51.356;-2.906;2023-04-04T09:08:12;102952.22;;;8.66;100.00
70370;BME280;57790;51.356;-2.906;2023-04-04T09:11:14;102952.31;;;8.64;100.00
70370;BME280;57790;51.356;-2.906;2023-04-04T09:14:17;102955.91;;;8.63;100.00
70370;BME280;57790;51.356;-2.906;2023-04-04T09:17:19;102955.06;;;8.63;100.00
70370;BME280;57790;51.356;-2.906;2023-04-04T09:20:39;102958.19;;;8.70;100.00
70370;BME280;57790;51.356;-2.906;2023-04-04T09:23:41;102949.19;;;8.72;100.00
70370;BME280;57790;51.356;-2.906;2023-04-04T09:26:51;102956.19;;;8.73;100.00
70370;BME280;57790;51.356;-2.906;2023-04-04T09:29:51;102952.19;;;8.80;100.00
70370;BME280;57790;51.356;-2.906;2023-04-04T09:32:52;102958.91;;;8.86;100.00
70370;BME280;57790;51.356;-2.906;2023-04-04T09:35:57;102949.84;;;8.90;100.00
70370;BME280;57790;51.356;-2.906;2023-04-04T09:38:57;102958.06;;;9.00;100.00
70370;BME280;57790;51.356;-2.906;2023-04-04T09:41:59;102952.66;;;9.01;100.00
70370;BME280;57790;51.356;-2.906;2023-04-04T09:45:00;102953.19;;;9.06;100.00
70370;BME280;57790;51.356;-2.906;2023-04-04T09:48:01;102948.13;;;9.03;100.00
70370;BME280;57790;51.356;-2.906;2023-04-04T09:51:06;102950.25;;;9.11;100.00
70370;BME280;57790;51.356;-2.906;2023-04-04T09:54:24;102959.41;;;9.19;100.00
70370;BME280;57790;51.356;-2.906;2023-04-04T09:57:29;102962.31;;;9.29;100.00
70370;BME280;57790;51.356;-2.906;2023-04-04T10:00:30;102958.22;;;9.38;100.00
70370;BME280;57790;51.356;-2.906;2023-04-04T10:03:38;102957.31;;;9.51;100.00
70370;BME280;57790;51.356;-2.906;2023-04-04T10:06:39;102961.91;;;9.62;100.00
70370;BME280;57790;51.356;-2.906;2023-04-04T10:09:42;102958.47;;;9.74;100.00
70370;BME280;57790;51.356;-2.906;2023-04-04T10:12:44;102945.75;;;9.79;100.00
70370;BME280;57790;51.356;-2.906;2023-04-04T10:15:46;102950.53;;;9.87;100.00
70370;BME280;57790;51.356;-2.906;2023-04-04T10:18:47;102956.03;;;9.97;100.00
70370;BME280;57790;51.356;-2.906;2023-04-04T10:21:48;102940.69;;;10.02;100.00
70370;BME280;57790;51.356;-2.906;2023-04-04T10:24:48;102945.47;;;10.09;100.00
70370;BME280;57790;51.356;-2.906;2023-04-04T10:27:49;102950.88;;;10.21;100.00
70370;BME280;57790;51.356;-2.906;2023-04-04T10:34:09;102945.06;;;10.41;100.00
70370;BME280;57790;51.356;-2.906;2023-04-04T10:37:16;102945.19;;;10.39;100.00
70370;BME280;57790;51.356;-2.906;2023-04-04T10:40:20;102941.06;;;10.48;100.00
70370;BME280;57790;51.356;-2.906;2023-04-04T10:43:24;102936.59;;;10.49;100.00
70370;BME280;57790;51.356;-2.906;2023-04-04T10:46:29;102937.13;;;10.54;100.00
70370;BME280;57790;51.356;-2.906;2023-04-04T10:49:32;102943.25;;;10.54;100.00
70370;BME280;57790;51.356;-2.906;2023-04-04T10:52:33;102948.03;;;10.62;100.00
70370;BME280;57790;51.356;-2.906;2023-04-04T10:55:35;102942.59;;;10.89;100.00
70370;BME280;57790;51.356;-2.906;2023-04-04T10:58:42;102942.00;;;10.96;100.00
70370;BME280;57790;51.356;-2.906;2023-04-04T11:01:56;102941.84;;;10.87;100.00
70370;BME280;57790;51.356;-2.906;2023-04-04T11:05:09;102949.03;;;10.85;100.00
70370;BME280;57790;51.356;-2.906;2023-04-04T11:08:15;102947.78;;;10.90;100.00
70370;BME280;57790;51.356;-2.906;2023-04-04T11:11:16;102940.63;;;11.03;100.00
70370;BME280;57790;51.356;-2.906;2023-04-04T11:14:27;102947.88;;;11.25;100.00
70370;BME280;57790;51.356;-2.906;2023-04-04T11:20:48;102942.56;;;11.25;100.00
70370;BME280;57790;51.356;-2.906;2023-04-04T11:26:48;102935.50;;;11.37;100.00
70370;BME280;57790;51.356;-2.906;2023-04-04T11:29:50;102934.00;;;11.57;100.00
70370;BME280;57790;51.356;-2.906;2023-04-04T11:32:56;102921.25;;;11.62;100.00
70370;BME280;57790;51.356;-2.906;2023-04-04T11:35:58;102915.31;;;11.58;100.00
70370;BME280;57790;51.356;-2.906;2023-04-04T11:39:00;102909.28;;;11.68;100.00
70370;BME280;57790;51.356;-2.906;2023-04-04T11:42:10;102904.16;;;11.77;100.00
70370;BME280;57790;51.356;-2.906;2023-04-04T11:45:17;102907.19;;;11.84;100.00
70370;BME280;57790;51.356;-2.906;2023-04-04T11:48:18;102915.94;;;11.97;100.00
70370;BME280;57790;51.356;-2.906;2023-04-04T11:51:19;102897.31;;;11.97;100.00
70370;BME280;57790;51.356;-2.906;2023-04-04T11:54:20;102904.13;;;12.01;100.00
70370;BME280;57790;51.356;-2.906;2023-04-04T11:57:20;102887.53;;;11.98;100.00
70370;BME280;57790;51.356;-2.906;2023-04-04T12:00:29;102873.41;;;12.08;100.00
70370;BME280;57790;51.356;-2.906;2023-04-04T12:03:29;102882.13;;;12.21;100.00
70370;BME280;57790;51.356;-2.906;2023-04-04T12:06:30;102867.88;;;12.45;100.00
70370;BME280;57790;51.356;-2.906;2023-04-04T12:09:34;102867.50;;;12.49;100.00
70370;BME280;57790;51.356;-2.906;2023-04-04T12:12:36;102867.13;;;12.43;100.00
70370;BME280;57790;51.356;-2.906;2023-04-04T12:15:38;102864.97;;;12.48;100.00
70370;BME280;57790;51.356;-2.906;2023-04-04T12:18:39;102856.59;;;12.52;100.00
70370;BME280;57790;51.356;-2.906;2023-04-04T12:21:39;102863.50;;;12.55;100.00
70370;BME280;57790;51.356;-2.906;2023-04-04T12:24:40;102854.13;;;12.72;100.00
70370;BME280;57790;51.356;-2.906;2023-04-04T12:27:41;102843.34;;;12.85;100.00
70370;BME280;57790;51.356;-2.906;2023-04-04T12:30:42;102844.56;;;12.92;100.00
70370;BME280;57790;51.356;-2.906;2023-04-04T12:33:42;102840.91;;;12.93;100.00
70370;BME280;57790;51.356;-2.906;2023-04-04T12:36:46;102842.84;;;13.02;100.00
70370;BME280;57790;51.356;-2.906;2023-04-04T12:39:47;102833.47;;;13.07;100.00
70370;BME280;57790;51.356;-2.906;2023-04-04T12:42:48;102827.91;;;13.10;100.00
70370;BME280;57790;51.356;-2.906;2023-04-04T12:45:49;102839.38;;;13.11;100.00
70370;BME280;57790;51.356;-2.906;2023-04-04T12:48:51;102830.56;;;13.10;100.00
70370;BME280;57790;51.356;-2.906;2023-04-04T12:51:52;102831.66;;;13.08;100.00
70370;BME280;57790;51.356;-2.906;2023-04-04T12:54:53;102832.63;;;13.18;100.00
70370;BME280;57790;51.356;-2.906;2023-04-04T12:57:59;102826.16;;;13.32;100.00
70370;BME280;57790;51.356;-2.906;2023-04-04T13:01:00;102822.09;;;13.37;100.00
70370;BME280;57790;51.356;-2.906;2023-04-04T13:04:02;102820.03;;;13.41;100.00
70370;BME280;57790;51.356;-2.906;2023-04-04T13:07:29;102816.66;;;13.39;100.00
70370;BME280;57790;51.356;-2.906;2023-04-04T13:10:55;102814.19;;;13.47;100.00
70370;BME280;57790;51.356;-2.906;2023-04-04T13:14:02;102797.81;;;13.52;100.00
70370;BME280;57790;51.356;-2.906;2023-04-04T13:17:06;102795.59;;;13.57;100.00
70370;BME280;57790;51.356;-2.906;2023-04-04T13:20:11;102795.91;;;13.63;100.00
70370;BME280;57790;51.356;-2.906;2023-04-04T13:23:12;102791.09;;;13.78;100.00
70370;BME280;57790;51.356;-2.906;2023-04-04T13:26:13;102787.59;;;13.87;100.00
70370;BME280;57790;51.356;-2.906;2023-04-04T13:29:14;102781.53;;;13.76;100.00
70370;BME280;57790;51.356;-2.906;2023-04-04T13:32:14;102784.44;;;13.73;100.00
70370;BME280;57790;51.356;-2.906;2023-04-04T13:35:16;102778.25;;;13.72;100.00
70370;BME280;57790;51.356;-2.906;2023-04-04T13:38:16;102773.97;;;13.81;100.00
70370;BME280;57790;51.356;-2.906;2023-04-04T13:41:17;102767.00;;;13.89;100.00
70370;BME280;57790;51.356;-2.906;2023-04-04T13:44:17;102765.19;;;13.99;100.00
70370;BME280;57790;51.356;-2.906;2023-04-04T13:47:18;102760.06;;;14.17;100.00
70370;BME280;57790;51.356;-2.906;2023-04-04T13:50:21;102760.50;;;14.22;100.00
70370;BME280;57790;51.356;-2.906;2023-04-04T13:53:22;102756.56;;;14.26;100.00
70370;BME280;57790;51.356;-2.906;2023-04-04T13:56:23;102756.72;;;14.25;100.00
70370;BME280;57790;51.356;-2.906;2023-04-04T13:59:23;102749.56;;;14.25;100.00
70370;BME280;57790;51.356;-2.906;2023-04-04T14:02:24;102746.88;;;14.25;100.00
70370;BME280;57790;51.356;-2.906;2023-04-04T14:05:24;102740.28;;;14.29;100.00
70370;BME280;57790;51.356;-2.906;2023-04-04T14:08:25;102729.34;;;14.42;100.00
70370;BME280;57790;51.356;-2.906;2023-04-04T14:11:25;102729.50;;;14.41;100.00
70370;BME280;57790;51.356;-2.906;2023-04-04T14:14:30;102721.84;;;14.47;100.00
70370;BME280;57790;51.356;-2.906;2023-04-04T14:17:30;102704.00;;;14.48;100.00
70370;BME280;57790;51.356;-2.906;2023-04-04T14:20:32;102703.97;;;14.57;100.00
70370;BME280;57790;51.356;-2.906;2023-04-04T14:23:32;102699.63;;;14.66;100.00
70370;BME280;57790;51.356;-2.906;2023-04-04T14:26:32;102697.94;;;14.65;100.00
70370;BME280;57790;51.356;-2.906;2023-04-04T14:29:33;102702.84;;;14.70;100.00
70370;BME280;57790;51.356;-2.906;2023-04-04T14:32:34;102696.69;;;14.69;100.00
70370;BME280;57790;51.356;-2.906;2023-04-04T14:35:34;102706.78;;;14.75;100.00
70370;BME280;57790;51.356;-2.906;2023-04-04T14:38:35;102699.50;;;14.77;100.00
70370;BME280;57790;51.356;-2.906;2023-04-04T14:41:35;102697.81;;;14.76;100.00
70370;BME280;57790;51.356;-2.906;2023-04-04T14:44:36;102695.97;;;14.77;100.00
70370;BME280;57790;51.356;-2.906;2023-04-04T14:47:36;102694.72;;;14.81;100.00
70370;BME280;57790;51.356;-2.906;2023-04-04T14:50:37;102692.44;;;14.86;100.00
70370;BME280;57790;51.356;-2.906;2023-04-04T14:53:37;102694.13;;;14.87;100.00
70370;BME280;57790;51.356;-2.906;2023-04-04T14:56:38;102683.59;;;14.95;100.00
70370;BME280;57790;51.356;-2.906;2023-04-04T14:59:38;102675.56;;;14.95;100.00
70370;BME280;57790;51.356;-2.906;2023-04-04T15:02:38;102683.59;;;14.95;100.00
70370;BME280;57790;51.356;-2.906;2023-04-04T15:05:40;102674.00;;;15.02;100.00
70370;BME280;57790;51.356;-2.906;2023-04-04T15:08:40;102661.63;;;15.11;100.00
70370;BME280;57790;51.356;-2.906;2023-04-04T15:11:42;102664.97;;;15.13;100.00
70370;BME280;57790;51.356;-2.906;2023-04-04T15:14:42;102651.91;;;15.20;100.00
70370;BME280;57790;51.356;-2.906;2023-04-04T15:17:43;102661.75;;;15.19;100.00
70370;BME280;57790;51.356;-2.906;2023-04-04T15:20:43;102652.59;;;15.22;100.00
70370;BME280;57790;51.356;-2.906;2023-04-04T15:23:44;102658.47;;;15.25;100.00
70370;BME280;57790;51.356;-2.906;2023-04-04T15:26:45;102650.63;;;15.24;100.00
70370;BME280;57790;51.356;-2.906;2023-04-04T15:29:45;102646.50;;;15.29;100.00
70370;BME280;57790;51.356;-2.906;2023-04-04T15:32:46;102640.16;;;15.30;100.00
70370;BME280;57790;51.356;-2.906;2023-04-04T15:35:46;102650.44;;;15.35;100.00
70370;BME280;57790;51.356;-2.906;2023-04-04T15:38:47;102641.28;;;15.37;100.00
70370;BME280;57790;51.356;-2.906;2023-04-04T15:41:47;102647.31;;;15.39;100.00
70370;BME280;57790;51.356;-2.906;2023-04-04T15:44:47;102642.66;;;15.41;100.00
70370;BME280;57790;51.356;-2.906;2023-04-04T15:47:48;102633.66;;;15.42;100.00